createdAt,value
2017-09-30T00:02:27.134Z,28.10
2017-09-30T00:04:55.541Z,31.50
2017-09-30T00:07:24.746Z,29.77
2017-09-30T00:09:53.928Z,30.17
2017-09-30T00:12:23.104Z,29.33
2017-09-30T00:14:51.548Z,28.73
2017-09-30T00:17:20.194Z,27.70
2017-09-30T00:19:49.378Z,29.77
2017-09-30T00:22:17.813Z,31.80
2017-09-30T00:24:46.240Z,31.30
2017-09-30T00:27:15.433Z,30.33
2017-09-30T00:29:43.857Z,28.17
2017-09-30T00:32:12.265Z,28.20
2017-09-30T00:34:40.679Z,28.30
2017-09-30T00:37:09.879Z,28.10
2017-09-30T00:39:39.049Z,28.67
2017-09-30T00:42:07.112Z,27.40
2017-09-30T00:44:35.533Z,26.70
2017-09-30T00:47:03.951Z,28.27
2017-09-30T00:49:32.371Z,26.97
2017-09-30T00:52:01.565Z,29.60
2017-09-30T00:54:29.979Z,28.23
2017-09-30T00:56:57.694Z,29.90
2017-09-30T00:59:25.426Z,27.00
2017-09-30T01:01:53.490Z,29.97
2017-09-30T01:04:21.558Z,31.37
2017-09-30T01:06:49.997Z,27.40
2017-09-30T01:09:19.173Z,28.10
2017-09-30T01:11:47.592Z,28.00
2017-09-30T01:14:16.324Z,30.17
2017-09-30T01:16:44.745Z,29.50
2017-09-30T01:19:13.235Z,26.30
2017-09-30T01:21:41.323Z,29.23
2017-09-30T01:24:09.057Z,28.77
2017-09-30T01:26:38.234Z,27.87
2017-09-30T01:29:06.323Z,28.40
2017-09-30T01:31:34.813Z,30.97
2017-09-30T01:34:02.527Z,27.40
2017-09-30T01:36:30.266Z,29.33
2017-09-30T01:38:58.338Z,27.60
2017-09-30T01:41:26.050Z,28.00
2017-09-30T01:43:55.488Z,28.43
2017-09-30T01:46:23.214Z,26.70
2017-09-30T01:48:51.698Z,26.57
2017-09-30T01:51:20.210Z,28.90
2017-09-30T01:53:48.623Z,25.03
2017-09-30T01:56:17.046Z,28.17
2017-09-30T01:58:45.473Z,27.50
2017-09-30T02:01:15.029Z,29.37
2017-09-30T02:03:43.518Z,28.77
2017-09-30T02:06:11.957Z,28.13
2017-09-30T02:08:40.373Z,28.10
2017-09-30T02:11:08.785Z,28.07
2017-09-30T02:13:37.220Z,28.50
2017-09-30T02:16:06.053Z,28.47
2017-09-30T02:18:34.471Z,27.90
2017-09-30T02:21:03.665Z,28.80
2017-09-30T02:23:32.105Z,27.87
2017-09-30T02:26:00.511Z,28.47
2017-09-30T02:28:29.148Z,28.47
2017-09-30T02:30:57.561Z,27.83
2017-09-30T02:33:25.980Z,28.87
2017-09-30T02:35:55.184Z,27.83
2017-09-30T02:38:23.593Z,28.40
2017-09-30T02:40:52.003Z,28.10
2017-09-30T02:43:20.446Z,27.77
2017-09-30T02:45:48.855Z,26.70
2017-09-30T02:48:17.284Z,26.50
2017-09-30T02:50:45.758Z,27.50
2017-09-30T02:53:14.174Z,28.33
2017-09-30T02:55:42.582Z,28.93
2017-09-30T02:58:11.013Z,30.00
2017-09-30T03:00:39.434Z,28.37
2017-09-30T03:03:07.845Z,29.60
2017-09-30T03:05:36.089Z,28.47
2017-09-30T03:08:04.510Z,28.83
2017-09-30T03:10:32.918Z,30.67
2017-09-30T03:13:01.349Z,27.60
2017-09-30T03:15:30.531Z,28.23
2017-09-30T03:17:58.941Z,28.40
2017-09-30T03:20:27.375Z,30.17
2017-09-30T03:22:55.783Z,27.73
2017-09-30T03:25:24.963Z,29.20
2017-09-30T03:27:53.378Z,29.93
2017-09-30T03:30:21.795Z,30.50
2017-09-30T03:32:50.202Z,28.47
2017-09-30T03:35:19.406Z,29.70
2017-09-30T03:37:48.590Z,29.97
2017-09-30T03:40:17.130Z,28.60
2017-09-30T03:42:45.570Z,27.07
2017-09-30T03:45:14.767Z,27.73
2017-09-30T03:47:43.934Z,29.00
2017-09-30T03:50:12.362Z,27.23
2017-09-30T03:52:41.514Z,27.80
2017-09-30T03:55:10.686Z,26.77
2017-09-30T03:57:39.114Z,27.60
2017-09-30T04:00:08.315Z,28.37
2017-09-30T04:02:36.974Z,26.73
2017-09-30T04:05:06.177Z,27.27
2017-09-30T04:07:35.362Z,28.80
2017-09-30T04:10:03.776Z,26.87
2017-09-30T04:12:32.234Z,29.70
2017-09-30T04:15:01.418Z,29.30
2017-09-30T04:17:29.829Z,29.27
2017-09-30T04:20:04.351Z,29.47
2017-09-30T04:22:32.771Z,30.10
2017-09-30T04:25:01.186Z,28.07
2017-09-30T04:27:30.394Z,30.87
2017-09-30T04:29:59.574Z,30.27
2017-09-30T04:32:28.762Z,28.57
2017-09-30T04:34:57.200Z,28.13
2017-09-30T04:37:25.615Z,28.47
2017-09-30T04:39:54.026Z,27.67
2017-09-30T04:42:22.458Z,27.40
2017-09-30T04:44:50.966Z,25.23
2017-09-30T04:47:20.237Z,26.10
2017-09-30T04:49:48.762Z,26.30
2017-09-30T04:52:17.951Z,25.77
2017-09-30T04:54:46.407Z,24.97
2017-09-30T04:57:15.626Z,24.77
2017-09-30T04:59:44.800Z,22.60
2017-09-30T05:02:13.214Z,24.10
2017-09-30T05:04:41.644Z,22.50
2017-09-30T05:07:10.050Z,23.07
2017-09-30T05:09:39.238Z,25.40
2017-09-30T05:12:07.662Z,24.90
2017-09-30T05:14:36.070Z,22.63
2017-09-30T05:17:04.494Z,21.43
2017-09-30T05:19:33.690Z,23.50
2017-09-30T05:22:02.872Z,22.40
2017-09-30T05:24:32.057Z,22.73
2017-09-30T05:27:00.488Z,22.20
2017-09-30T05:29:28.917Z,24.80
2017-09-30T05:31:57.333Z,24.87
2017-09-30T05:34:25.783Z,20.90
2017-09-30T05:36:54.965Z,23.60
2017-09-30T05:39:23.380Z,21.13
2017-09-30T05:41:51.806Z,22.80
2017-09-30T05:44:20.301Z,20.00
2017-09-30T05:46:50.219Z,20.93
2017-09-30T05:49:18.645Z,21.67
2017-09-30T05:51:47.050Z,19.50
2017-09-30T05:54:15.459Z,18.80
2017-09-30T05:56:43.885Z,19.80
2017-09-30T05:59:12.306Z,16.90
2017-09-30T06:01:40.375Z,18.03
2017-09-30T06:04:08.798Z,17.43
2017-09-30T06:06:37.206Z,19.20
2017-09-30T06:09:05.670Z,18.70
2017-09-30T06:11:34.122Z,19.00
2017-09-30T06:14:03.307Z,18.90
2017-09-30T06:16:32.482Z,20.80
2017-09-30T06:19:00.926Z,22.13
2017-09-30T06:21:29.350Z,24.10
2017-09-30T06:23:57.881Z,22.17
2017-09-30T06:26:26.310Z,22.87
2017-09-30T06:28:54.723Z,24.57
2017-09-30T06:31:23.151Z,22.20
2017-09-30T06:33:51.587Z,22.43
2017-09-30T06:36:20.001Z,21.00
2017-09-30T06:38:48.404Z,18.60
2017-09-30T06:41:17.027Z,18.17
2017-09-30T06:43:45.434Z,19.37
2017-09-30T06:46:13.851Z,20.13
2017-09-30T06:48:43.039Z,18.70
2017-09-30T06:51:11.454Z,17.93
2017-09-30T06:53:39.866Z,16.40
2017-09-30T06:56:08.287Z,17.50
2017-09-30T06:58:37.462Z,17.27
2017-09-30T07:01:05.883Z,18.17
2017-09-30T07:03:34.339Z,17.20
2017-09-30T07:06:03.526Z,18.43
2017-09-30T07:08:31.949Z,17.23
2017-09-30T07:11:00.375Z,16.60
2017-09-30T07:13:30.306Z,16.30
2017-09-30T07:15:59.505Z,16.20
2017-09-30T07:18:28.705Z,15.33
2017-09-30T07:20:57.879Z,15.47
2017-09-30T07:23:26.291Z,15.77
2017-09-30T07:25:55.491Z,15.13
2017-09-30T07:28:23.958Z,16.83
2017-09-30T07:30:53.142Z,14.77
2017-09-30T07:33:21.578Z,16.77
2017-09-30T07:35:49.990Z,16.40
2017-09-30T07:38:18.403Z,16.00
2017-09-30T07:40:46.830Z,14.47
2017-09-30T07:43:15.244Z,16.63
2017-09-30T07:45:44.418Z,14.30
2017-09-30T07:48:12.850Z,14.90
2017-09-30T07:50:41.265Z,15.70
2017-09-30T07:53:09.689Z,15.37
2017-09-30T07:55:39.318Z,15.00
2017-09-30T07:58:08.002Z,15.90
2017-09-30T08:00:36.639Z,16.30
2017-09-30T08:03:06.194Z,15.73
2017-09-30T08:05:34.642Z,13.97
2017-09-30T08:08:03.826Z,14.67
2017-09-30T08:10:33.038Z,13.70
2017-09-30T08:13:02.224Z,14.00
2017-09-30T08:15:32.150Z,14.77
2017-09-30T08:18:01.387Z,14.70
2017-09-30T08:20:29.802Z,14.43
2017-09-30T08:22:58.217Z,14.57
2017-09-30T08:25:26.647Z,14.57
2017-09-30T08:27:55.067Z,14.17
2017-09-30T08:30:23.484Z,15.27
2017-09-30T08:32:51.913Z,14.77
2017-09-30T08:35:21.081Z,14.30
2017-09-30T08:37:50.271Z,14.27
2017-09-30T08:40:18.937Z,16.40
2017-09-30T08:42:47.361Z,16.37
2017-09-30T08:45:16.541Z,16.40
2017-09-30T08:47:46.500Z,15.47
2017-09-30T08:50:15.139Z,16.23
2017-09-30T08:52:44.387Z,15.70
2017-09-30T08:55:12.463Z,14.97
2017-09-30T08:57:40.881Z,15.63
2017-09-30T09:00:09.290Z,15.43
2017-09-30T09:02:38.491Z,17.00
2017-09-30T09:05:07.671Z,19.23
2017-09-30T09:07:36.847Z,18.40
2017-09-30T09:10:05.275Z,17.20
2017-09-30T09:12:33.680Z,16.07
2017-09-30T09:15:02.082Z,16.43
2017-09-30T09:17:30.510Z,15.87
2017-09-30T09:19:58.918Z,14.93
2017-09-30T09:22:27.446Z,17.03
2017-09-30T09:24:56.642Z,16.67
2017-09-30T09:27:25.826Z,15.67
2017-09-30T09:29:54.242Z,14.93
2017-09-30T09:32:22.698Z,14.90
2017-09-30T09:34:51.874Z,16.73
2017-09-30T09:37:20.278Z,16.53
2017-09-30T09:39:49.494Z,15.80
2017-09-30T09:42:17.905Z,16.17
2017-09-30T09:44:46.338Z,16.30
2017-09-30T09:47:14.772Z,15.50
2017-09-30T09:49:43.185Z,17.70
2017-09-30T09:52:12.363Z,17.30
2017-09-30T09:54:40.790Z,19.07
2017-09-30T09:57:09.209Z,20.80
2017-09-30T09:59:37.626Z,20.27
2017-09-30T10:02:06.128Z,19.03
2017-09-30T10:04:34.559Z,18.90
2017-09-30T10:07:02.776Z,18.43
2017-09-30T10:09:31.033Z,17.97
2017-09-30T10:12:00.209Z,18.20
2017-09-30T10:14:28.647Z,18.27
2017-09-30T10:16:57.070Z,16.90
2017-09-30T10:19:26.254Z,18.23
2017-09-30T10:21:56.191Z,18.40
2017-09-30T10:24:24.891Z,17.80
2017-09-30T10:26:53.307Z,17.23
2017-09-30T10:29:21.863Z,18.17
2017-09-30T10:31:50.294Z,18.70
2017-09-30T10:34:18.715Z,17.00
2017-09-30T10:36:47.117Z,19.30
2017-09-30T10:39:15.543Z,17.03
2017-09-30T10:41:44.725Z,16.77
2017-09-30T10:44:13.143Z,15.93
2017-09-30T10:46:41.595Z,18.10
2017-09-30T10:49:10.767Z,17.03
2017-09-30T10:51:39.178Z,17.73
2017-09-30T10:54:08.370Z,16.47
2017-09-30T10:56:37.544Z,16.37
2017-09-30T10:59:06.722Z,15.37
2017-09-30T11:01:35.278Z,15.13
2017-09-30T11:04:03.685Z,15.07
2017-09-30T11:06:32.102Z,13.97
2017-09-30T11:09:01.321Z,14.57
2017-09-30T11:11:29.729Z,13.83
2017-09-30T11:13:58.140Z,15.13
2017-09-30T11:16:27.338Z,14.07
2017-09-30T11:18:57.250Z,15.63
2017-09-30T11:21:27.182Z,15.53
2017-09-30T11:23:56.500Z,13.23
2017-09-30T11:26:24.982Z,14.87
2017-09-30T11:28:53.394Z,16.10
2017-09-30T11:31:21.838Z,15.83
2017-09-30T11:33:50.254Z,13.17
2017-09-30T11:36:18.674Z,13.10
2017-09-30T11:38:47.867Z,14.67
2017-09-30T11:41:17.049Z,15.10
2017-09-30T11:43:45.472Z,15.63
2017-09-30T11:46:13.955Z,14.17
2017-09-30T11:48:43.041Z,13.07
2017-09-30T11:51:11.459Z,15.10
2017-09-30T11:53:39.897Z,14.77
2017-09-30T11:56:08.315Z,14.73
2017-09-30T11:58:36.730Z,15.57
2017-09-30T12:01:05.975Z,15.13
2017-09-30T12:03:34.393Z,16.13
2017-09-30T12:06:02.799Z,16.20
2017-09-30T12:08:31.531Z,14.97
2017-09-30T12:10:59.955Z,16.30
2017-09-30T12:13:29.125Z,15.03
2017-09-30T12:15:57.547Z,17.00
2017-09-30T12:18:25.966Z,16.63
2017-09-30T12:20:54.416Z,15.90
2017-09-30T12:23:22.836Z,16.17
2017-09-30T12:25:51.254Z,14.20
2017-09-30T12:28:19.666Z,15.73
2017-09-30T12:30:48.104Z,16.03
2017-09-30T12:33:17.282Z,17.87
2017-09-30T12:35:45.700Z,17.40
2017-09-30T12:38:14.122Z,15.57
2017-09-30T12:40:42.534Z,16.97
2017-09-30T12:43:11.715Z,18.27
2017-09-30T12:45:40.149Z,17.60
2017-09-30T12:48:08.561Z,19.73
2017-09-30T12:50:36.975Z,17.87
2017-09-30T12:53:05.701Z,16.87
2017-09-30T12:55:34.111Z,17.57
2017-09-30T12:58:02.533Z,19.10
2017-09-30T13:00:30.968Z,18.20
2017-09-30T13:03:01.371Z,18.50
2017-09-30T13:05:30.407Z,18.70
2017-09-30T13:07:59.631Z,19.70
2017-09-30T13:10:28.029Z,17.80
2017-09-30T13:12:56.447Z,19.90
2017-09-30T13:15:25.647Z,18.23
2017-09-30T13:17:54.826Z,18.70
2017-09-30T13:20:23.245Z,17.90
2017-09-30T13:22:51.677Z,18.40
2017-09-30T13:25:20.862Z,17.47
2017-09-30T13:27:49.336Z,18.23
2017-09-30T13:30:17.996Z,18.00
2017-09-30T13:32:46.422Z,17.60
2017-09-30T13:35:14.836Z,17.97
2017-09-30T13:37:44.062Z,17.60
2017-09-30T13:40:12.475Z,17.70
2017-09-30T13:42:40.894Z,17.90
2017-09-30T13:45:09.334Z,18.23
2017-09-30T13:47:38.543Z,18.33
2017-09-30T13:50:07.042Z,15.57
2017-09-30T13:52:36.228Z,17.90
2017-09-30T13:55:05.410Z,16.43
2017-09-30T13:57:35.370Z,15.40
2017-09-30T14:00:03.808Z,17.27
2017-09-30T14:02:31.918Z,17.40
2017-09-30T14:05:00.349Z,16.37
2017-09-30T14:07:28.774Z,15.90
2017-09-30T14:09:57.194Z,16.17
2017-09-30T14:12:25.617Z,17.37
2017-09-30T14:14:54.304Z,17.93
2017-09-30T14:17:22.974Z,18.33
2017-09-30T14:19:52.146Z,16.80
2017-09-30T14:22:20.581Z,16.80
2017-09-30T14:24:49.003Z,16.07
2017-09-30T14:27:17.429Z,15.70
2017-09-30T14:29:45.851Z,15.93
2017-09-30T14:32:14.267Z,15.93
2017-09-30T14:34:43.469Z,16.07
2017-09-30T14:37:12.690Z,16.53
2017-09-30T14:39:41.103Z,16.50
2017-09-30T14:42:09.515Z,14.67
2017-09-30T14:44:38.701Z,16.00
2017-09-30T14:47:07.891Z,16.00
2017-09-30T14:49:36.337Z,16.53
2017-09-30T14:52:04.781Z,16.07
2017-09-30T14:54:33.186Z,15.90
2017-09-30T14:57:01.602Z,17.43
2017-09-30T14:59:30.797Z,16.37
2017-09-30T15:01:59.215Z,16.80
2017-09-30T15:04:27.631Z,18.93
2017-09-30T15:06:56.063Z,17.77
2017-09-30T15:09:24.487Z,16.93
2017-09-30T15:11:52.903Z,18.80
2017-09-30T15:14:22.330Z,18.30
2017-09-30T15:16:50.747Z,16.37
2017-09-30T15:19:19.187Z,17.33
2017-09-30T15:21:47.643Z,16.00
2017-09-30T15:24:17.495Z,16.57
2017-09-30T15:26:45.906Z,17.20
2017-09-30T15:29:14.337Z,17.70
2017-09-30T15:31:42.828Z,16.53
2017-09-30T15:34:11.246Z,16.83
2017-09-30T15:36:39.670Z,17.10
2017-09-30T15:39:08.082Z,17.13
2017-09-30T15:41:36.528Z,15.60
2017-09-30T15:44:04.962Z,19.10
2017-09-30T15:46:33.369Z,19.53
2017-09-30T15:49:02.551Z,18.07
2017-09-30T15:51:31.252Z,20.53
2017-09-30T15:54:00.429Z,16.00
2017-09-30T15:56:29.598Z,16.70
2017-09-30T15:58:58.032Z,17.00
2017-09-30T16:01:27.206Z,17.30
2017-09-30T16:03:55.632Z,17.97
2017-09-30T16:06:23.893Z,18.30
2017-09-30T16:08:52.381Z,16.30
2017-09-30T16:11:20.880Z,17.67
2017-09-30T16:13:49.619Z,18.40
2017-09-30T16:16:18.995Z,19.40
2017-09-30T16:18:47.641Z,18.30
2017-09-30T16:21:16.258Z,16.17
2017-09-30T16:23:44.681Z,16.67
2017-09-30T16:26:13.112Z,18.60
2017-09-30T16:28:41.536Z,17.70
2017-09-30T16:31:09.979Z,15.83
2017-09-30T16:33:38.391Z,16.70
2017-09-30T16:36:06.825Z,17.90
2017-09-30T16:38:35.257Z,17.30
2017-09-30T16:41:03.678Z,18.00
2017-09-30T16:43:32.169Z,16.27
2017-09-30T16:46:00.938Z,16.73
2017-09-30T16:48:29.350Z,16.83
2017-09-30T16:50:58.550Z,16.07
2017-09-30T16:53:27.731Z,17.00
2017-09-30T16:55:56.146Z,17.47
2017-09-30T16:58:24.574Z,17.43
2017-09-30T17:00:52.990Z,15.80
2017-09-30T17:03:22.166Z,17.03
2017-09-30T17:05:50.593Z,18.20
2017-09-30T17:08:19.002Z,16.93
2017-09-30T17:10:47.413Z,17.50
2017-09-30T17:13:16.602Z,19.10
2017-09-30T17:15:45.012Z,19.67
2017-09-30T17:18:13.425Z,18.03
2017-09-30T17:20:41.857Z,19.33
2017-09-30T17:23:11.034Z,19.80
2017-09-30T17:25:39.439Z,17.70
2017-09-30T17:28:08.196Z,18.27
2017-09-30T17:30:36.993Z,17.93
2017-09-30T17:33:06.227Z,18.33
2017-09-30T17:35:34.669Z,18.10
2017-09-30T17:38:03.841Z,17.93
2017-09-30T17:40:32.265Z,19.00
2017-09-30T17:43:00.684Z,16.17
2017-09-30T17:45:28.918Z,18.03
2017-09-30T17:47:57.334Z,19.57
2017-09-30T17:50:25.767Z,18.17
2017-09-30T17:52:54.948Z,20.67
2017-09-30T17:55:24.186Z,19.43
2017-09-30T17:57:52.614Z,18.53
2017-09-30T18:00:21.888Z,20.60
2017-09-30T18:02:50.298Z,18.30
2017-09-30T18:05:19.518Z,19.37
2017-09-30T18:07:47.930Z,20.70
2017-09-30T18:10:16.357Z,20.57
2017-09-30T18:12:45.550Z,21.20
2017-09-30T18:15:13.954Z,21.87
2017-09-30T18:17:42.366Z,21.63
2017-09-30T18:20:10.806Z,20.63
2017-09-30T18:22:39.222Z,22.27
2017-09-30T18:25:07.639Z,20.77
2017-09-30T18:27:36.073Z,20.97
2017-09-30T18:30:04.500Z,20.33
2017-09-30T18:32:33.673Z,22.50
2017-09-30T18:35:02.292Z,20.43
2017-09-30T18:37:31.475Z,21.07
2017-09-30T18:40:00.663Z,21.93
2017-09-30T18:42:28.757Z,21.67
2017-09-30T18:44:57.943Z,23.30
2017-09-30T18:47:27.121Z,23.17
2017-09-30T18:49:55.553Z,20.13
2017-09-30T18:52:23.975Z,20.90
2017-09-30T18:54:52.391Z,22.83
2017-09-30T18:57:21.587Z,20.60
2017-09-30T18:59:50.775Z,20.67
2017-09-30T19:02:19.952Z,22.77
2017-09-30T19:04:49.141Z,23.10
2017-09-30T19:07:17.603Z,21.97
2017-09-30T19:09:46.005Z,21.73
2017-09-30T19:12:14.435Z,22.40
2017-09-30T19:14:42.891Z,23.10
2017-09-30T19:17:11.320Z,21.23
2017-09-30T19:19:39.751Z,21.00
2017-09-30T19:22:08.165Z,19.47
2017-09-30T19:24:36.571Z,21.30
2017-09-30T19:27:04.995Z,23.30
2017-09-30T19:29:34.292Z,22.60
2017-09-30T19:32:02.704Z,23.90
2017-09-30T19:34:31.137Z,26.70
2017-09-30T19:37:01.465Z,31.30
2017-09-30T19:39:29.874Z,32.90
2017-09-30T19:41:58.311Z,31.20
2017-09-30T19:44:27.301Z,35.60
2017-09-30T19:46:56.495Z,35.97
2017-09-30T19:49:25.690Z,35.03
2017-09-30T19:51:54.874Z,37.63
2017-09-30T19:54:23.288Z,37.20
2017-09-30T19:56:51.970Z,34.37
2017-09-30T19:59:20.378Z,34.27
2017-09-30T20:01:48.798Z,34.60
2017-09-30T20:04:19.158Z,32.97
2017-09-30T20:06:47.574Z,29.23
2017-09-30T20:09:16.032Z,30.57
2017-09-30T20:11:44.465Z,25.27
2017-09-30T20:14:13.646Z,22.10
2017-09-30T20:16:42.069Z,23.67
2017-09-30T20:19:10.510Z,24.77
2017-09-30T20:21:38.949Z,23.37
2017-09-30T20:24:07.369Z,24.30
2017-09-30T20:26:35.801Z,23.67
2017-09-30T20:29:04.221Z,24.47
2017-09-30T20:31:32.870Z,24.90
2017-09-30T20:34:01.306Z,22.20
2017-09-30T20:36:31.087Z,24.97
2017-09-30T20:38:59.506Z,24.80
2017-09-30T20:41:27.945Z,24.23
2017-09-30T20:43:56.357Z,25.60
2017-09-30T20:46:24.779Z,27.53
2017-09-30T20:48:53.197Z,25.90
2017-09-30T20:51:21.605Z,27.10
2017-09-30T20:53:50.033Z,28.27
2017-09-30T20:56:18.464Z,26.67
2017-09-30T20:58:47.156Z,25.13
2017-09-30T21:01:15.571Z,24.07
2017-09-30T21:03:43.998Z,24.43
2017-09-30T21:06:12.424Z,25.03
2017-09-30T21:08:40.846Z,23.40
2017-09-30T21:11:10.042Z,28.23
2017-09-30T21:13:39.230Z,24.80
2017-09-30T21:16:08.403Z,23.77
2017-09-30T21:18:36.834Z,25.83
2017-09-30T21:21:05.246Z,20.93
2017-09-30T21:23:33.668Z,18.70
2017-09-30T21:26:02.874Z,14.50
2017-09-30T21:28:31.290Z,11.33
2017-09-30T21:30:59.886Z,9.23
2017-09-30T21:33:28.314Z,9.27
2017-09-30T21:35:57.566Z,7.97
2017-09-30T21:38:25.993Z,7.33
2017-09-30T21:40:54.426Z,7.93
2017-09-30T21:43:22.850Z,8.50
2017-09-30T21:45:51.065Z,7.73
2017-09-30T21:48:19.508Z,6.40
2017-09-30T21:50:47.963Z,6.50
2017-09-30T21:53:16.211Z,7.40
2017-09-30T21:55:44.645Z,7.50
2017-09-30T21:58:12.899Z,7.47
2017-09-30T22:00:41.315Z,7.70
2017-09-30T22:03:09.767Z,7.40
2017-09-30T22:05:38.188Z,6.93
2017-09-30T22:08:06.590Z,6.73
2017-09-30T22:10:35.014Z,7.07
2017-09-30T22:13:03.418Z,6.83
2017-09-30T22:15:31.668Z,7.67
2017-09-30T22:17:59.898Z,7.97
2017-09-30T22:20:28.120Z,8.33
2017-09-30T22:22:56.518Z,8.67
2017-09-30T22:25:24.749Z,8.93
2017-09-30T22:27:53.928Z,8.97
2017-09-30T22:30:22.343Z,8.83
2017-09-30T22:32:50.850Z,8.53
2017-09-30T22:35:19.263Z,9.40
2017-09-30T22:37:47.673Z,9.80
2017-09-30T22:40:15.961Z,9.10
2017-09-30T22:42:44.379Z,8.70
2017-09-30T22:45:12.788Z,9.50
2017-09-30T22:47:41.997Z,9.53
2017-09-30T22:50:10.419Z,9.13
2017-09-30T22:52:38.836Z,10.70
2017-09-30T22:55:08.043Z,10.13
2017-09-30T22:57:36.450Z,10.50
2017-09-30T23:00:04.872Z,11.10
2017-09-30T23:02:33.302Z,11.00
2017-09-30T23:05:01.714Z,10.60
2017-09-30T23:07:30.130Z,10.90
2017-09-30T23:09:59.342Z,11.83
2017-09-30T23:12:27.754Z,9.77
2017-09-30T23:14:56.170Z,12.47
2017-09-30T23:17:24.606Z,11.27
2017-09-30T23:19:53.023Z,12.87
2017-09-30T23:22:21.438Z,12.13
2017-09-30T23:24:49.874Z,12.33
2017-09-30T23:27:18.302Z,12.47
2017-09-30T23:29:46.713Z,11.97
2017-09-30T23:32:15.789Z,10.43
2017-09-30T23:34:44.197Z,11.80
2017-09-30T23:37:12.608Z,10.07
2017-09-30T23:39:41.043Z,10.00
2017-09-30T23:42:09.457Z,10.10
2017-09-30T23:44:38.623Z,10.27
2017-09-30T23:47:07.041Z,8.73
2017-09-30T23:49:36.212Z,8.77
2017-09-30T23:52:04.617Z,9.30
2017-09-30T23:54:33.825Z,8.37
2017-09-30T23:57:02.234Z,8.40
2017-09-30T23:59:30.646Z,8.17
